Time;durP1;ratioP1;P1;durP2;ratioP2;P2;SDS_P1;SDS_P2;PMS_P1;PMS_P2;Temp;Humidity;BMP_temperature;BMP_pressure;BME280_temperature;BME280_humidity;BME280_pressure;Samples;Min_cycle;Max_cycle;Signal;HPM_P1;HPM_P2
2022/09/13 00:02:25;;;;;;;3.13;2.83;;;20.10;67.90;;;-142.21;89.23;112049.66;5071363;28;20254;-79
2022/09/13 00:04:54;;;;;;;3.03;2.70;;;20.10;67.80;;;-142.21;90.10;112049.66;5072113;28;20308;-76
2022/09/13 00:07:21;;;;;;;4.60;3.13;;;20.00;68.20;;;-142.21;89.69;112049.66;5071283;28;20266;-80
2022/09/13 00:09:48;;;;;;;3.17;2.87;;;20.00;68.10;;;-142.21;89.84;112049.66;5072055;28;20233;-78
2022/09/13 00:12:18;;;;;;;3.57;2.70;;;20.00;68.00;;;-142.21;89.51;112049.66;5071172;28;20292;-76
2022/09/13 00:14:45;;;;;;;3.83;2.83;;;20.00;68.00;;;-142.21;89.72;112049.66;5071932;28;20244;-77
2022/09/13 00:17:12;;;;;;;3.50;2.77;;;20.00;68.00;;;-142.21;89.75;112049.66;5071399;28;20233;-79
2022/09/13 00:19:39;;;;;;;4.80;2.83;;;19.90;68.20;;;-142.21;90.17;112049.66;5072027;28;20336;-79
2022/09/13 00:22:08;;;;;;;4.60;3.43;;;19.90;68.50;;;-142.21;90.50;112049.66;5071084;28;20291;-76
2022/09/13 00:24:36;;;;;;;6.97;3.13;;;19.80;68.60;;;-142.21;90.64;112049.66;5071527;28;20284;-77
2022/09/13 00:27:03;;;;;;;3.27;2.97;;;19.80;68.70;;;-142.21;90.16;112049.66;5053971;28;20267;-79
2022/09/13 00:29:30;;;;;;;3.00;2.70;;;19.80;68.60;;;-142.21;90.15;112049.66;5071379;28;20276;-81
2022/09/13 00:31:58;;;;;;;3.90;3.50;;;19.70;68.50;;;-142.21;90.25;112049.66;5071988;28;20228;-78
2022/09/13 00:34:25;;;;;;;3.40;3.10;;;19.70;68.30;;;-142.21;90.67;112049.66;5070685;28;20283;-79
2022/09/13 00:36:52;;;;;;;3.30;2.97;;;19.70;68.50;;;-142.21;90.90;112049.66;5071550;28;20685;-79
2022/09/13 00:39:21;;;;;;;3.33;3.00;;;19.70;68.60;;;-142.21;91.93;112049.66;5071049;28;20202;-79
2022/09/13 00:41:49;;;;;;;4.63;3.40;;;19.60;69.00;;;-142.21;92.01;112049.66;5071500;28;20591;-78
2022/09/13 00:44:57;;;;;;;4.80;2.80;;;19.60;69.40;;;-142.21;91.46;112049.66;5071187;28;20791;-77
2022/09/13 00:47:33;;;;;;;4.60;3.17;;;19.60;69.70;;;-142.21;91.34;112049.66;5074899;28;20197;-80
2022/09/13 00:50:07;;;;;;;3.13;2.83;;;19.60;69.30;;;-142.21;91.04;112049.66;5075236;28;20215;-80
2022/09/13 00:52:38;;;;;;;6.27;3.23;;;19.50;69.20;;;-142.21;91.26;112049.66;5074996;28;20474;-79
2022/09/13 00:55:16;;;;;;;3.87;3.10;;;19.50;69.20;;;-142.21;90.76;112049.66;5055073;28;20412;-77
2022/09/13 00:57:43;;;;;;;3.40;3.10;;;19.50;69.30;;;-142.21;91.21;112049.66;5020880;28;20213;-76
2022/09/13 01:00:16;;;;;;;4.40;3.27;;;19.50;69.10;;;-142.21;91.14;112049.66;5054172;28;20575;-78
2022/09/13 01:02:51;;;;;;;6.07;3.30;;;19.40;69.20;;;-142.21;91.43;112049.66;5055179;28;20222;-80
2022/09/13 01:05:26;;;;;;;6.43;3.10;;;19.40;69.20;;;-142.21;91.46;112049.66;5074281;28;20236;-80
2022/09/13 01:07:54;;;;;;;4.80;3.20;;;19.40;69.30;;;-142.21;91.15;112049.66;5075132;28;20224;-79
2022/09/13 01:10:23;;;;;;;4.77;3.00;;;19.40;69.40;;;-142.21;91.43;112049.66;5074400;28;20289;-80
2022/09/13 01:12:59;;;;;;;3.10;2.80;;;19.40;69.50;;;-142.21;91.63;112049.66;5066347;28;20796;-79
2022/09/13 01:15:27;;;;;;;6.17;3.30;;;19.30;69.60;;;-142.21;91.24;112049.66;5054544;28;20285;-79
2022/09/13 01:17:56;;;;;;;4.33;3.00;;;19.30;69.40;;;-142.21;91.61;112049.66;5071794;28;20614;-76
2022/09/13 01:20:41;;;;;;;4.20;2.90;;;19.30;69.40;;;-142.21;92.37;112049.66;5074190;28;20205;-80
2022/09/13 01:23:56;;;;;;;5.93;3.40;;;19.30;69.70;;;-142.21;92.24;112049.66;5074091;28;20603;-77
2022/09/13 01:27:14;;;;;;;4.30;3.10;;;19.20;69.80;;;-142.21;92.41;112049.66;5073697;28;20733;-80
2022/09/13 01:33:41;;;;;;;4.00;3.00;;;19.20;69.80;;;-142.21;91.69;112049.66;5172224;27;21097;-79
2022/09/13 01:36:52;;;;;;;6.30;3.23;;;19.20;69.80;;;-142.21;91.74;112049.66;5059616;28;20476;-80
2022/09/13 01:39:41;;;;;;;3.87;3.33;;;19.10;70.00;;;-142.21;92.42;112049.66;5148230;27;20259;-79
2022/09/13 01:42:23;;;;;;;5.40;3.17;;;19.10;70.10;;;-142.21;92.98;112049.66;5150634;27;20286;-80
2022/09/13 01:45:12;;;;;;;4.20;2.93;;;19.00;70.20;;;-142.21;92.91;112049.66;5151273;27;20197;-80
2022/09/13 01:47:52;;;;;;;3.63;3.23;;;19.00;70.20;;;-142.21;92.67;112049.66;5150678;27;20458;-80
2022/09/13 01:50:35;;;;;;;4.33;3.10;;;18.90;70.00;;;-142.21;92.27;112049.66;5150549;27;20214;-79
2022/09/13 01:53:16;;;;;;;3.20;2.90;;;19.00;70.10;;;-142.21;92.04;112049.66;5151046;27;20199;-79
2022/09/13 01:55:52;;;;;;;3.73;3.23;;;18.90;69.80;;;-142.21;92.05;112049.66;5151014;27;20428;-80
2022/09/13 01:58:31;;;;;;;4.17;2.97;;;18.90;69.80;;;-142.21;92.66;112049.66;5110448;28;20199;-78
2022/09/13 02:01:12;;;;;;;3.53;3.23;;;18.90;70.20;;;-142.21;92.99;112049.66;5146821;27;20195;-79
2022/09/13 02:03:49;;;;;;;3.70;3.40;;;18.80;70.40;;;-142.21;93.22;112049.66;5150675;27;20187;-79
2022/09/13 02:06:24;;;;;;;3.77;3.10;;;18.80;70.60;;;-142.21;93.67;112049.66;5097594;27;20263;-80
2022/09/13 02:08:57;;;;;;;4.60;2.90;;;18.80;70.70;;;-142.21;93.54;112049.66;5151040;27;20281;-79
2022/09/13 02:11:24;;;;;;;3.70;3.40;;;18.80;70.60;;;-142.21;93.53;112049.66;5149842;27;20555;-80
2022/09/13 02:14:01;;;;;;;5.67;3.03;;;18.70;70.30;;;-142.21;93.82;112049.66;5150593;27;20562;-80
2022/09/13 02:16:34;;;;;;;4.63;2.77;;;18.80;70.90;;;-142.21;94.34;112049.66;5150185;27;20226;-80
2022/09/13 02:19:12;;;;;;;3.80;3.40;;;18.70;70.80;;;-142.21;94.77;112049.66;5150804;27;20269;-80
2022/09/13 02:21:46;;;;;;;4.47;3.20;;;18.70;71.00;;;-142.21;94.07;112049.66;5150670;27;20525;-79
2022/09/13 02:24:19;;;;;;;3.47;3.17;;;18.70;70.90;;;-142.21;93.67;112049.66;5150033;27;20186;-79
2022/09/13 02:26:53;;;;;;;3.53;2.87;;;18.70;70.70;;;-142.21;93.25;112049.66;5150449;27;20424;-79
2022/09/13 02:29:24;;;;;;;3.40;2.90;;;18.70;70.50;;;-142.21;93.42;112049.66;5149700;27;20504;-80
2022/09/13 02:31:59;;;;;;;4.27;3.33;;;18.60;70.50;;;-142.21;93.50;112049.66;5149925;27;21011;-79
2022/09/13 02:34:34;;;;;;;3.53;3.23;;;18.60;70.60;;;-142.21;93.62;112049.66;5149819;27;20501;-74
2022/09/13 02:37:07;;;;;;;3.50;3.20;;;18.50;70.80;;;-142.21;94.05;112049.66;5150321;27;20445;-80
2022/09/13 02:39:39;;;;;;;4.00;3.20;;;18.50;71.90;;;-142.21;94.55;112049.66;5109700;28;20472;-79
2022/09/13 02:42:15;;;;;;;3.73;3.23;;;18.40;71.10;;;-142.21;95.09;112049.66;5073752;28;20230;-79
2022/09/13 02:44:47;;;;;;;4.10;3.37;;;18.40;71.10;;;-142.21;94.65;112049.66;5130415;27;20198;-79
2022/09/13 02:47:40;;;;;;;4.20;2.90;;;18.40;71.10;;;-142.21;94.46;112049.66;5136019;27;20303;-79
2022/09/13 02:50:32;;;;;;;3.17;2.87;;;18.40;71.10;;;-142.21;94.29;112049.66;5080195;28;20441;-79
2022/09/13 02:53:13;;;;;;;3.23;2.93;;;18.40;71.10;;;-142.21;94.36;112049.66;5099275;28;20433;-79
2022/09/13 02:55:51;;;;;;;4.63;3.57;;;18.30;71.00;;;-142.21;94.36;112049.66;5115435;28;20433;-79
2022/09/13 02:58:28;;;;;;;4.40;2.80;;;18.30;71.00;;;-142.21;93.88;112049.66;5115457;28;20434;-75
2022/09/13 03:00:56;;;;;;;3.57;3.10;;;18.30;71.00;;;-142.21;94.22;112049.66;5115780;28;20453;-77
2022/09/13 03:03:24;;;;;;;5.13;3.00;;;18.30;70.80;;;-142.21;93.96;112049.66;5129640;27;20466;-77
2022/09/13 03:05:53;;;;;;;5.17;2.97;;;18.30;70.90;;;-142.21;94.14;112049.66;5136213;27;20523;-80
2022/09/13 03:08:24;;;;;;;3.83;3.10;;;18.30;70.90;;;-142.21;94.36;112049.66;5135003;27;20213;-79
2022/09/13 03:11:04;;;;;;;4.50;3.53;;;18.30;71.10;;;-142.21;94.53;112049.66;5135803;27;20444;-79
2022/09/13 03:13:58;;;;;;;4.67;3.07;;;18.30;71.30;;;-142.21;94.51;112049.66;5135491;27;20515;-77
2022/09/13 03:16:47;;;;;;;4.00;3.60;;;18.30;71.30;;;-142.21;94.27;112049.66;5082467;27;20444;-79
2022/09/13 03:19:34;;;;;;;3.43;3.13;;;18.30;71.00;;;-142.21;94.45;112049.66;5135808;27;20445;-78
2022/09/13 03:22:27;;;;;;;3.40;3.00;;;18.30;71.20;;;-142.21;94.23;112049.66;5135643;27;20463;-79
2022/09/13 03:25:09;;;;;;;5.57;3.43;;;18.20;70.90;;;-142.21;93.96;112049.66;5114456;28;20969;-79
2022/09/13 03:27:50;;;;;;;4.53;2.87;;;18.20;70.90;;;-142.21;94.54;112049.66;5114329;28;20429;-79
2022/09/13 03:30:19;;;;;;;4.10;3.37;;;18.20;71.30;;;-142.21;94.94;112049.66;5114210;28;20430;-79
2022/09/13 03:32:52;;;;;;;4.33;3.73;;;18.10;71.40;;;-142.21;95.10;112049.66;5115052;28;20474;-80
2022/09/13 03:35:32;;;;;;;4.50;3.20;;;18.10;71.40;;;-142.21;94.59;112049.66;5116566;27;20445;-80
2022/09/13 03:38:07;;;;;;;5.07;3.70;;;18.10;71.20;;;-142.21;94.95;112049.66;5118334;27;20778;-79
2022/09/13 03:40:43;;;;;;;5.37;4.43;;;18.10;71.30;;;-142.21;95.42;112049.66;5063195;28;20437;-80
2022/09/13 03:43:16;;;;;;;7.10;4.67;;;18.10;71.40;;;-142.21;95.55;112049.66;5114846;28;20479;-79
2022/09/13 03:45:48;;;;;;;5.27;3.57;;;18.10;71.40;;;-142.21;95.62;112049.66;5114989;28;20425;-78
2022/09/13 03:48:18;;;;;;;4.53;3.37;;;18.10;71.50;;;-142.21;95.22;112049.66;5115041;28;20430;-78
2022/09/13 03:50:48;;;;;;;4.00;3.03;;;18.10;71.60;;;-142.21;95.22;112049.66;5097016;28;20473;-77
2022/09/13 03:53:22;;;;;;;5.27;3.00;;;18.10;71.50;;;-142.21;95.55;112049.66;5121014;27;20509;-77
2022/09/13 03:55:52;;;;;;;4.57;3.10;;;17.90;71.80;;;-142.21;96.29;112049.66;5116140;27;20448;-79
2022/09/13 03:58:22;;;;;;;5.30;3.30;;;17.80;72.10;;;-142.21;96.86;112049.66;5134501;27;20531;-78
2022/09/13 04:00:50;;;;;;;3.50;3.10;;;17.80;72.30;;;-142.21;97.02;112049.66;5135157;27;20455;-78
2022/09/13 04:03:17;;;;;;;5.13;3.10;;;17.80;72.30;;;-142.21;97.50;112049.66;5134609;27;20456;-77
2022/09/13 04:05:45;;;;;;;7.17;3.30;;;17.80;72.60;;;-142.21;97.73;112049.66;5135191;27;20449;-79
2022/09/13 04:08:13;;;;;;;4.63;3.50;;;17.80;72.90;;;-142.21;97.99;112049.66;5134935;27;20781;-79
2022/09/13 04:10:41;;;;;;;5.87;3.57;;;17.80;72.90;;;-142.21;98.43;112049.66;5134569;27;20448;-79
2022/09/13 04:13:10;;;;;;;6.13;3.60;;;17.90;74.20;;;-142.21;98.58;112049.66;5134825;27;20486;-79
2022/09/13 04:15:37;;;;;;;5.30;4.03;;;17.90;73.90;;;-142.21;98.43;112049.66;5134294;27;20483;-79
2022/09/13 04:18:04;;;;;;;4.73;2.97;;;17.90;73.60;;;-142.21;98.05;112049.66;5134629;27;20449;-79
2022/09/13 04:20:31;;;;;;;7.73;3.47;;;18.00;73.40;;;-142.21;98.63;112049.66;5134057;27;20445;-79
2022/09/13 04:22:59;;;;;;;3.80;3.10;;;18.00;73.70;;;-142.21;98.47;112049.66;5133937;27;20449;-78
2022/09/13 04:25:26;;;;;;;7.10;3.27;;;18.00;73.60;;;-142.21;99.13;112049.66;5133995;27;20463;-79
2022/09/13 04:27:55;;;;;;;5.77;3.40;;;18.00;73.80;;;-142.21;98.97;112049.66;5134230;27;20531;-79
2022/09/13 04:30:24;;;;;;;6.73;4.03;;;18.00;73.70;;;-142.21;98.66;112049.66;5133483;27;20456;-79
2022/09/13 04:32:51;;;;;;;5.77;4.00;;;18.10;73.80;;;-142.21;98.55;112049.66;5134452;27;20464;-79
2022/09/13 04:35:19;;;;;;;4.30;3.43;;;18.10;73.60;;;-142.21;98.67;112049.66;5133888;27;20455;-79
2022/09/13 04:37:46;;;;;;;5.67;3.23;;;18.10;73.70;;;-142.21;98.23;112049.66;5134157;27;20458;-79
2022/09/13 04:40:14;;;;;;;10.40;4.17;;;18.10;73.50;;;-142.21;98.94;112049.66;5134196;27;20929;-78
2022/09/13 04:42:44;;;;;;;28.27;7.87;;;18.10;73.90;;;-142.21;99.70;112049.66;5133815;27;20460;-78
2022/09/13 04:45:11;;;;;;;13.37;6.27;;;18.10;74.20;;;-142.21;99.77;112049.66;5116478;27;20447;-78
2022/09/13 04:47:40;;;;;;;6.73;3.80;;;18.10;74.20;;;-142.21;98.31;112049.66;5115405;27;20444;-80
2022/09/13 04:50:08;;;;;;;5.00;3.43;;;18.10;73.10;;;-142.21;98.74;112049.66;5115878;27;20493;-78
2022/09/13 04:52:36;;;;;;;3.60;3.30;;;18.10;73.40;;;-142.21;98.62;112049.66;5133328;27;20472;-78
2022/09/13 04:55:03;;;;;;;3.37;2.90;;;18.00;73.40;;;-142.21;98.47;112049.66;5134476;27;20207;-77
2022/09/13 04:57:30;;;;;;;3.23;2.93;;;18.00;73.20;;;-142.21;98.62;112049.66;5133619;27;20231;-78
2022/09/13 04:59:57;;;;;;;4.20;3.20;;;18.00;73.60;;;-142.21;98.19;112049.66;5134323;27;20532;-77
2022/09/13 05:02:24;;;;;;;3.83;3.37;;;18.00;73.50;;;-142.21;98.21;112049.66;5132944;27;20480;-79
2022/09/13 05:04:53;;;;;;;5.27;3.40;;;18.00;73.40;;;-142.21;98.25;112049.66;5115125;27;20527;-78
2022/09/13 05:07:20;;;;;;;3.53;3.23;;;18.00;73.40;;;-142.21;97.89;112049.66;5133734;27;20445;-77
2022/09/13 05:09:47;;;;;;;5.90;3.37;;;18.00;73.40;;;-142.21;97.98;112049.66;5133532;27;20452;-79
2022/09/13 05:12:14;;;;;;;3.53;2.87;;;18.10;73.40;;;-142.21;97.89;112049.66;5133981;27;20485;-79
2022/09/13 05:14:42;;;;;;;4.43;3.47;;;18.00;73.20;;;-142.21;98.27;112049.66;5112605;28;20520;-79
2022/09/13 05:17:09;;;;;;;5.93;3.10;;;18.00;73.50;;;-142.21;98.28;112049.66;5130714;27;20455;-77
2022/09/13 05:19:36;;;;;;;3.97;3.33;;;17.90;73.60;;;-142.21;98.74;112049.66;5132643;27;20444;-80
2022/09/13 05:22:05;;;;;;;4.07;3.20;;;17.80;73.90;;;-142.21;98.92;112049.66;5133461;27;20943;-77
2022/09/13 05:24:32;;;;;;;4.17;3.10;;;17.70;74.30;;;-142.21;99.50;112049.66;5132612;27;20444;-76
2022/09/13 05:26:59;;;;;;;5.13;3.20;;;17.70;74.50;;;-142.21;99.42;112049.66;5133816;27;20528;-78
2022/09/13 05:29:26;;;;;;;4.73;3.30;;;17.80;74.50;;;-142.21;99.71;112049.66;5132909;28;20475;-77
2022/09/13 05:31:54;;;;;;;7.43;3.50;;;17.90;74.60;;;-142.21;99.57;112049.66;5114660;28;20487;-76
2022/09/13 05:34:21;;;;;;;3.77;3.07;;;17.90;74.40;;;-142.21;99.05;112049.66;5132870;28;20933;-77
2022/09/13 05:36:49;;;;;;;4.57;3.50;;;17.90;74.20;;;-142.21;99.25;112049.66;5133381;28;20939;-76
2022/09/13 05:39:18;;;;;;;4.87;3.83;;;17.90;74.10;;;-142.21;99.96;112049.66;5133560;28;20452;-79
2022/09/13 05:41:46;;;;;;;3.83;3.37;;;18.00;74.60;;;-142.21;100.00;112049.66;5132601;28;20983;-79
2022/09/13 05:44:15;;;;;;;3.50;3.17;;;18.00;74.20;;;-142.21;100.00;112049.66;5133468;28;20457;-78
2022/09/13 05:46:43;;;;;;;4.00;2.97;;;18.10;74.40;;;-142.21;99.35;112049.66;5132354;28;20470;-79
2022/09/13 05:49:12;;;;;;;3.57;3.10;;;18.10;74.10;;;-142.21;99.26;112049.66;5132554;27;20445;-78
2022/09/13 05:51:39;;;;;;;3.10;2.80;;;18.20;74.30;;;-142.21;99.12;112049.66;5132124;28;20471;-77
2022/09/13 05:54:07;;;;;;;3.03;2.73;;;18.20;74.20;;;-142.21;99.44;112049.66;5133175;28;20447;-77
2022/09/13 05:56:35;;;;;;;4.47;3.30;;;18.20;74.20;;;-142.21;98.68;112049.66;5132508;27;20432;-78
2022/09/13 05:59:02;;;;;;;4.80;2.97;;;18.20;74.10;;;-142.21;98.82;112049.66;5133120;28;20859;-78
2022/09/13 06:01:30;;;;;;;4.73;3.30;;;18.10;74.10;;;-142.21;98.81;112049.66;5132194;28;20778;-78
2022/09/13 06:03:59;;;;;;;3.90;3.47;;;18.10;74.30;;;-142.21;99.18;112049.66;5132696;28;20429;-78
2022/09/13 06:06:27;;;;;;;3.97;3.23;;;18.00;74.80;;;-142.21;99.73;112049.66;5132265;28;20484;-79
2022/09/13 06:08:56;;;;;;;4.77;3.07;;;17.90;75.00;;;-142.21;100.00;112049.66;5132798;28;20476;-78
2022/09/13 06:11:24;;;;;;;4.10;3.70;;;17.90;75.40;;;-142.21;100.00;112049.66;5132508;28;20451;-78
2022/09/13 06:13:53;;;;;;;6.00;2.93;;;18.00;75.50;;;-142.21;100.00;112049.66;5114511;28;21293;-78
2022/09/13 06:16:21;;;;;;;4.83;3.70;;;18.00;75.40;;;-142.21;100.00;112049.66;5132791;28;20531;-79
2022/09/13 06:18:49;;;;;;;4.40;4.00;;;18.10;75.30;;;-142.21;100.00;112049.66;5134802;27;20448;-77
2022/09/13 06:21:19;;;;;;;5.33;3.47;;;18.20;75.30;;;-142.21;100.00;112049.66;5136464;27;20439;-78
2022/09/13 06:23:48;;;;;;;3.50;3.20;;;18.20;75.10;;;-142.21;100.00;112049.66;5136167;27;20492;-79
2022/09/13 06:26:17;;;;;;;3.90;3.13;;;18.30;75.20;;;-142.21;100.00;112049.66;5136759;27;20441;-78
2022/09/13 06:28:49;;;;;;;5.23;3.10;;;18.20;75.50;;;-142.21;100.00;112049.66;5136023;27;20207;-80
2022/09/13 06:31:21;;;;;;;4.23;3.27;;;18.20;76.40;;;-142.21;100.00;112049.66;5136014;27;20472;-77
2022/09/13 06:33:49;;;;;;;3.70;3.30;;;18.20;77.60;;;-142.21;100.00;112049.66;5135679;27;20517;-80
2022/09/13 06:36:19;;;;;;;3.83;3.40;;;18.20;77.20;;;-142.21;100.00;112049.66;5137238;27;20432;-83
2022/09/13 06:38:48;;;;;;;4.60;3.23;;;18.40;77.50;;;-142.21;100.00;112049.66;5136035;27;20689;-79
2022/09/13 06:41:19;;;;;;;4.33;3.17;;;18.60;77.30;;;-142.21;100.00;112049.66;5136446;27;20440;-81
2022/09/13 06:43:47;;;;;;;3.23;2.93;;;18.70;76.40;;;-142.21;99.96;112049.66;5136011;27;20464;-80
2022/09/13 06:46:19;;;;;;;3.33;2.90;;;18.90;75.70;;;-142.21;98.83;112049.66;5135445;27;20203;-79
2022/09/13 06:48:48;;;;;;;4.20;2.87;;;19.00;75.10;;;-142.21;98.06;112049.66;5135797;27;20448;-78
2022/09/13 06:51:19;;;;;;;3.50;2.90;;;19.10;74.50;;;-142.21;98.10;112049.66;5136716;27;20844;-80
2022/09/13 06:53:49;;;;;;;4.50;2.90;;;19.10;74.80;;;-142.21;96.67;112049.66;5135658;27;20295;-80
2022/09/13 06:56:19;;;;;;;3.97;3.67;;;19.10;74.40;;;-142.21;96.22;112049.66;5136333;27;20234;-79
2022/09/13 06:58:49;;;;;;;3.10;2.80;;;19.20;74.20;;;-142.21;95.45;112049.66;5135692;27;20481;-79
2022/09/13 07:01:20;;;;;;;3.13;2.83;;;19.40;73.90;;;-142.21;95.31;112049.66;5135621;27;20739;-80
2022/09/13 07:03:51;;;;;;;4.03;2.73;;;19.50;73.80;;;-142.21;93.74;112049.66;5135186;27;20632;-80
2022/09/13 07:06:21;;;;;;;3.83;2.77;;;19.60;72.80;;;-142.21;93.32;112049.66;5136254;27;20233;-80
2022/09/13 07:08:52;;;;;;;3.10;2.90;;;19.90;72.60;;;-142.21;92.56;112049.66;5135795;27;20252;-83
2022/09/13 07:11:22;;;;;;;3.07;2.77;;;20.00;71.90;;;-142.21;92.23;112049.66;5136889;27;20292;-82
2022/09/13 07:13:51;;;;;;;3.50;2.70;;;20.10;71.50;;;-142.21;91.77;112049.66;5135599;27;20256;-80
2022/09/13 07:16:22;;;;;;;2.70;2.40;;;20.20;72.00;;;-142.21;91.45;112049.66;5135715;27;20437;-79
2022/09/13 07:18:52;;;;;;;3.17;2.67;;;20.30;71.10;;;-142.21;90.44;112049.66;5136380;27;20207;-84
2022/09/13 07:21:23;;;;;;;5.10;3.20;;;20.20;70.90;;;-142.21;91.73;112049.66;5137044;27;20183;-84
2022/09/13 07:23:54;;;;;;;3.00;2.57;;;20.20;71.60;;;-142.21;92.16;112049.66;5135963;27;20271;-81
2022/09/13 07:26:22;;;;;;;3.47;2.87;;;20.40;72.00;;;-142.21;92.13;112049.66;5136352;27;20381;-84
2022/09/13 07:28:53;;;;;;;2.73;2.53;;;20.50;71.70;;;-142.21;92.35;112049.66;5136230;27;20242;-83
2022/09/13 07:31:24;;;;;;;3.83;2.77;;;20.70;71.50;;;-142.21;91.00;112049.66;5135682;27;20235;-83
2022/09/13 07:33:55;;;;;;;2.80;2.43;;;20.80;70.90;;;-142.21;90.58;112049.66;5135194;27;20303;-81
2022/09/13 07:36:23;;;;;;;3.00;2.10;;;20.80;70.30;;;-142.21;89.66;112049.66;5117569;27;20248;-83
2022/09/13 07:38:51;;;;;;;2.27;2.07;;;20.90;69.80;;;-142.21;88.67;112049.66;5134706;27;20237;-82
2022/09/13 07:41:22;;;;;;;5.33;2.53;;;21.00;69.10;;;-142.21;88.81;112049.66;5135705;27;20199;-84
2022/09/13 07:43:50;;;;;;;3.20;2.67;;;21.10;69.20;;;-142.21;89.01;112049.66;5117439;27;20633;-82
2022/09/13 07:46:22;;;;;;;3.07;2.40;;;21.20;69.00;;;-142.21;88.33;112049.66;5135501;27;20278;-84
2022/09/13 07:48:52;;;;;;;3.40;2.50;;;21.20;68.70;;;-142.21;87.65;112049.66;5134854;27;20226;-77
2022/09/13 07:51:22;;;;;;;3.13;2.50;;;21.30;68.20;;;-142.21;87.51;112049.66;5135206;27;20278;-77
2022/09/13 07:53:52;;;;;;;3.70;2.20;;;21.30;67.80;;;-142.21;87.48;112049.66;5134563;27;20683;-77
2022/09/13 07:56:22;;;;;;;3.10;2.30;;;21.40;67.60;;;-142.21;87.56;112049.66;5135103;27;20219;-77
2022/09/13 07:58:51;;;;;;;2.97;2.33;;;21.50;68.00;;;-142.21;90.34;112049.66;5134177;27;20203;-77
2022/09/13 08:01:23;;;;;;;2.43;2.17;;;21.60;69.00;;;-142.21;89.32;112049.66;5135067;27;20211;-77
2022/09/13 08:03:56;;;;;;;3.97;2.20;;;21.70;68.70;;;-142.21;89.97;112049.66;5134518;27;20275;-77
2022/09/13 08:06:26;;;;;;;4.37;2.50;;;21.80;69.20;;;-142.21;90.97;112049.66;5134580;27;20266;-80
2022/09/13 08:08:53;;;;;;;2.33;2.13;;;21.80;69.60;;;-142.21;91.22;112049.66;5134298;27;20256;-78
2022/09/13 08:11:24;;;;;;;2.30;2.10;;;21.90;69.30;;;-142.21;90.27;112049.66;5134833;27;20256;-77
2022/09/13 08:13:53;;;;;;;3.33;2.10;;;22.00;69.20;;;-142.21;90.36;112049.66;5133682;27;20219;-78
2022/09/13 08:16:24;;;;;;;2.63;2.10;;;22.10;68.90;;;-142.21;89.90;112049.66;5134653;27;20270;-75
2022/09/13 08:18:54;;;;;;;3.63;1.97;;;22.20;68.70;;;-142.21;89.97;112049.66;5134201;27;20219;-76
2022/09/13 08:21:23;;;;;;;3.57;2.90;;;22.30;68.80;;;-142.21;89.77;112049.66;5134458;27;20199;-78
2022/09/13 08:23:55;;;;;;;4.13;2.40;;;22.40;68.30;;;-142.21;89.66;112049.66;5133973;27;20230;-78
2022/09/13 08:26:22;;;;;;;3.67;2.20;;;22.60;68.40;;;-142.21;89.62;112049.66;5134074;27;20195;-78
2022/09/13 08:28:49;;;;;;;3.10;2.10;;;22.70;68.40;;;-142.21;88.44;112049.66;5133234;27;20269;-76
2022/09/13 08:31:19;;;;;;;2.50;2.30;;;22.90;68.00;;;-142.21;86.88;112049.66;5134019;27;20260;-80
2022/09/13 08:33:48;;;;;;;3.00;2.27;;;23.00;67.20;;;-142.21;86.09;112049.66;5133664;27;20558;-83
2022/09/13 08:36:17;;;;;;;2.73;2.27;;;23.10;66.60;;;-142.21;86.38;112049.66;5134534;27;20230;-79
2022/09/13 08:38:47;;;;;;;2.73;2.17;;;23.20;67.60;;;-142.21;85.42;112049.66;5133695;27;20223;-79
2022/09/13 08:42:03;;;;;;;2.20;2.00;;;23.20;66.40;;;-142.21;84.42;112049.66;5133617;27;20202;-81
2022/09/13 08:44:35;;;;;;;2.87;2.30;;;23.40;65.80;;;-142.21;85.78;112049.66;5113477;28;20578;-80
2022/09/13 08:47:35;;;;;;;2.67;2.27;;;23.50;66.20;;;-142.21;82.43;112049.66;5113431;28;20229;-81
2022/09/13 08:50:14;;;;;;;2.73;2.30;;;23.70;64.80;;;-142.21;81.50;112049.66;5113475;28;20196;-83
2022/09/13 08:52:56;;;;;;;2.63;1.80;;;23.80;64.50;;;-142.21;80.09;112049.66;5112897;28;20221;-83
2022/09/13 08:55:44;;;;;;;2.17;1.87;;;24.00;63.90;;;-142.21;80.19;112049.66;5113287;28;20240;-82
2022/09/13 08:58:56;;;;;;;3.47;2.27;;;24.10;63.40;;;-142.21;80.83;112049.66;5113143;28;20215;-80
2022/09/13 09:01:43;;;;;;;2.13;1.93;;;24.20;63.80;;;-142.21;78.25;112049.66;5106693;28;20289;-81
2022/09/13 09:04:33;;;;;;;2.07;1.73;;;24.30;62.60;;;-142.21;76.48;112049.66;5113397;28;20268;-82
2022/09/13 09:07:09;;;;;;;2.37;2.17;;;24.40;61.60;;;-142.21;73.85;112049.66;5113115;28;20550;-83
2022/09/13 09:09:46;;;;;;;2.37;1.97;;;24.50;60.60;;;-142.21;74.73;112049.66;5112788;28;20187;-82
2022/09/13 09:12:29;;;;;;;3.60;1.90;;;24.70;60.70;;;-142.21;75.86;112049.66;5112964;28;20187;-79
2022/09/13 09:15:12;;;;;;;3.47;1.90;;;24.90;61.20;;;-142.21;74.84;112049.66;5112596;28;20190;-82
2022/09/13 09:17:50;;;;;;;3.30;2.00;;;25.00;60.90;;;-142.21;74.28;112049.66;5121278;27;20270;-77
2022/09/13 09:20:27;;;;;;;2.67;2.00;;;25.00;60.50;;;-142.21;74.25;112049.66;5113023;28;20184;-79
2022/09/13 09:22:56;;;;;;;3.20;2.23;;;25.10;60.20;;;-142.21;73.41;112049.66;5112336;28;20692;-79
2022/09/13 09:25:26;;;;;;;2.10;1.90;;;25.20;60.00;;;-142.21;72.68;112049.66;5112763;28;20253;-80
2022/09/13 09:27:53;;;;;;;2.00;1.80;;;25.20;59.70;;;-142.21;72.50;112049.66;5125871;27;20192;-81
2022/09/13 09:30:21;;;;;;;2.30;2.07;;;25.30;59.50;;;-142.21;72.46;112049.66;5132929;28;20278;-81
2022/09/13 09:33:24;;;;;;;2.40;2.20;;;25.30;59.10;;;-142.21;71.43;112049.66;5133003;28;20221;-80
2022/09/13 09:36:01;;;;;;;2.20;2.00;;;25.30;59.40;;;-142.21;70.99;112049.66;5132689;28;20179;-83
2022/09/13 09:38:39;;;;;;;4.17;2.50;;;25.30;58.80;;;-142.21;72.48;112049.66;5133286;28;20183;-81
2022/09/13 09:41:21;;;;;;;2.30;2.10;;;25.40;58.90;;;-142.21;71.83;112049.66;5133011;28;20190;-80
2022/09/13 09:43:56;;;;;;;2.73;2.00;;;25.40;58.80;;;-142.21;71.43;112049.66;5132773;28;20188;-78
2022/09/13 09:46:30;;;;;;;3.23;2.00;;;25.60;58.70;;;-142.21;71.62;112049.66;5133351;28;20182;-79
2022/09/13 09:50:07;;;;;;;1.67;1.57;;;25.70;58.60;;;-142.21;69.29;112049.66;5132562;28;20190;-80
2022/09/13 09:52:06;;;;;;;2.57;1.87;;;25.90;57.90;;;-142.21;64.83;112049.66;5132234;27;20611;-81
2022/09/13 09:54:36;;;;;;;2.80;1.67;;;26.10;57.00;;;-142.21;66.34;112049.66;5137090;27;20226;-80
2022/09/13 09:57:05;;;;;;;7.00;2.13;;;26.20;56.80;;;-142.21;65.94;112049.66;5137648;27;20207;-79
2022/09/13 09:59:33;;;;;;;1.80;1.70;;;26.30;56.80;;;-142.21;65.18;112049.66;5137188;27;20223;-81
2022/09/13 10:02:12;;;;;;;3.63;1.73;;;26.30;56.40;;;-142.21;63.65;112049.66;5136379;27;20651;-81
2022/09/13 10:04:40;;;;;;;3.63;2.20;;;26.30;56.00;;;-142.21;60.38;112049.66;5136476;27;20183;-80
2022/09/13 10:07:25;;;;;;;2.13;1.93;;;26.40;55.40;;;-142.21;62.08;112049.66;5137036;27;20227;-82
2022/09/13 10:10:00;;;;;;;2.33;1.73;;;26.40;55.40;;;-142.21;62.33;112049.66;5136188;27;20552;-80
2022/09/13 10:12:32;;;;;;;1.80;1.70;;;26.50;55.80;;;-142.21;60.65;112049.66;5136793;27;20712;-81
2022/09/13 10:15:17;;;;;;;2.47;1.97;;;26.60;55.20;;;-142.21;61.73;112049.66;5136544;27;20217;-80
2022/09/13 10:18:01;;;;;;;2.33;1.70;;;26.70;55.50;;;-142.21;59.92;112049.66;5132711;27;20213;-81
2022/09/13 10:20:30;;;;;;;3.33;1.80;;;26.80;54.80;;;-142.21;60.07;112049.66;5137498;27;20248;-80
2022/09/13 10:23:19;;;;;;;2.00;1.90;;;27.00;54.70;;;-142.21;59.16;112049.66;5115236;28;20238;-80
2022/09/13 10:26:07;;;;;;;3.03;1.90;;;27.10;53.80;;;-142.21;61.01;112049.66;5115349;28;20652;-80
2022/09/13 10:28:44;;;;;;;4.60;1.90;;;27.20;54.50;;;-142.21;60.72;112049.66;5116373;28;20230;-79
2022/09/13 10:31:16;;;;;;;2.10;1.90;;;27.40;54.80;;;-142.21;62.15;112049.66;5115851;28;20312;-83